Terminal Aerodrome Forecast
Issued by NWS Melbourne, FL

Home | Current Version | Previous Version | Text Only | Print | Product List | Glossary On
Versions: 1 2 3 4 5 6 7 8 9 10 11 12 13 14 15 16 17 18 19 20 21 22 23 24 25 26 27 28
000
FTUS42 KMLB 020538
TAFMCO
TAF
KMCO 020538Z 0206/0306 02004KT 3/4SM BR BKN002
      TEMPO 0206/0208 1/2SM FG VV002
     FM020800 02004KT 1/2SM FG OVC002
      TEMPO 0208/0212 1/4SM FG VV002
     FM021200 02004KT 1/2SM FG OVC002
      TEMPO 0213/0214 3/4SM BR BKN003
     FM021400 03005KT P6SM BKN010
     FM021800 06006KT P6SM SCT035
     FM030000 06007KT P6SM SCT040 BKN250=

USA.gov is the U.S. government's official web portal to all federal, state and local government web resources and services.